createdAt,value
2018-05-03T00:00:04.031Z,23.85
2018-05-03T00:01:04.120Z,24.71
2018-05-03T00:02:04.086Z,24.80
2018-05-03T00:03:03.905Z,23.85
2018-05-03T00:04:03.931Z,23.85
2018-05-03T00:05:03.886Z,23.85
2018-05-03T00:06:03.814Z,23.66
2018-05-03T00:07:03.787Z,23.66
2018-05-03T00:08:03.886Z,23.38
2018-05-03T00:09:03.684Z,24.13
2018-05-03T00:10:03.664Z,24.04
2018-05-03T00:11:03.646Z,24.33
2018-05-03T00:12:03.581Z,24.04
2018-05-03T00:13:03.619Z,23.75
2018-05-03T00:14:03.504Z,23.57
2018-05-03T00:15:03.508Z,23.94
2018-05-03T00:16:03.393Z,24.61
2018-05-03T00:17:03.435Z,24.61
2018-05-03T00:18:03.328Z,24.52
2018-05-03T00:19:03.340Z,24.99
2018-05-03T00:20:03.253Z,24.99
2018-05-03T00:21:03.250Z,24.61
2018-05-03T00:22:03.188Z,23.85
2018-05-03T00:23:03.145Z,23.94
2018-05-03T00:24:03.157Z,24.52
2018-05-03T00:25:03.072Z,24.52
2018-05-03T00:26:02.985Z,24.61
2018-05-03T00:27:02.985Z,24.80
2018-05-03T00:28:03.025Z,24.80
2018-05-03T00:29:02.906Z,24.61
2018-05-03T00:30:02.954Z,24.61
2018-05-03T00:31:02.875Z,24.61
2018-05-03T00:32:02.855Z,24.61
2018-05-03T00:33:02.835Z,24.99
2018-05-03T00:34:02.719Z,24.71
2018-05-03T00:35:02.669Z,24.72
2018-05-03T00:36:02.677Z,24.53
2018-05-03T00:37:02.591Z,24.42
2018-05-03T00:38:02.554Z,24.34
2018-05-03T00:39:02.516Z,23.86
2018-05-03T00:40:02.474Z,24.05
2018-05-03T00:41:02.408Z,23.86
2018-05-03T00:42:02.428Z,24.24
2018-05-03T00:43:02.372Z,24.53
2018-05-03T00:44:02.319Z,24.72
2018-05-03T00:45:02.289Z,23.77
2018-05-03T00:46:02.241Z,24.43
2018-05-03T00:47:02.188Z,24.91
2018-05-03T00:48:02.179Z,24.62
2018-05-03T00:49:02.189Z,24.24
2018-05-03T00:50:02.108Z,24.24
2018-05-03T00:51:02.025Z,23.58
2018-05-03T00:52:01.983Z,23.10
2018-05-03T00:53:01.960Z,22.81
2018-05-03T00:54:01.910Z,22.44
2018-05-03T00:55:01.855Z,22.53
2018-05-03T00:56:01.874Z,22.34
2018-05-03T00:57:01.918Z,22.06
2018-05-03T00:58:01.764Z,21.96
2018-05-03T00:59:01.801Z,21.96
2018-05-03T01:00:01.713Z,22.06
2018-05-03T01:01:01.663Z,21.96
2018-05-03T01:03:37.061Z,22.06
2018-05-03T01:04:35.859Z,22.25
2018-05-03T01:06:30.570Z,25.48
2018-05-03T01:07:29.326Z,25.68
2018-05-03T01:09:24.339Z,25.49
2018-05-03T01:10:24.382Z,25.49
2018-05-03T01:13:50.391Z,25.68
2018-05-03T01:14:48.421Z,24.82
2018-05-03T01:16:48.115Z,24.63
2018-05-03T01:17:45.928Z,23.68
2018-05-03T01:19:41.273Z,22.64
2018-05-03T01:20:41.295Z,22.06
2018-05-03T01:22:55.692Z,21.78
2018-05-03T01:23:34.345Z,21.78
2018-05-03T01:25:28.839Z,21.59
2018-05-03T01:26:27.507Z,21.78
2018-05-03T01:28:22.322Z,21.50
2018-05-03T01:29:20.966Z,21.59
2018-05-03T01:31:27.790Z,21.78
2018-05-03T01:32:27.699Z,21.40
2018-05-03T01:34:20.595Z,21.40
2018-05-03T01:35:20.632Z,21.69
2018-05-03T01:37:13.675Z,21.12
2018-05-03T01:38:13.215Z,21.21
2018-05-03T01:40:06.686Z,21.12
2018-05-03T01:41:07.115Z,21.59
2018-05-03T01:43:00.074Z,21.21
2018-05-03T01:43:59.991Z,21.02
2018-05-03T01:45:52.904Z,21.21
2018-05-03T01:46:51.683Z,21.50
2018-05-03T01:48:46.502Z,21.40
2018-05-03T01:49:46.063Z,21.40
2018-05-03T01:51:39.387Z,21.69
2018-05-03T01:52:39.278Z,21.50
2018-05-03T01:54:32.235Z,21.40
2018-05-03T01:55:32.449Z,21.40
2018-05-03T01:57:25.365Z,21.69
2018-05-03T01:58:25.288Z,21.69
2018-05-03T02:00:18.306Z,21.40
2018-05-03T02:01:16.487Z,21.97
2018-05-03T02:03:11.337Z,21.40
2018-05-03T02:04:10.819Z,21.50
2018-05-03T02:06:04.200Z,21.78
2018-05-03T02:07:03.731Z,21.69
2018-05-03T02:08:57.138Z,21.59
2018-05-03T02:09:57.083Z,21.59
2018-05-03T02:11:50.127Z,21.97
2018-05-03T02:12:48.256Z,22.16
2018-05-03T02:14:43.099Z,22.06
2018-05-03T02:15:42.873Z,21.97
2018-05-03T02:17:36.813Z,21.97
2018-05-03T02:18:35.309Z,22.35
2018-05-03T02:20:30.531Z,22.54
2018-05-03T02:21:30.434Z,22.35
2018-05-03T02:23:23.432Z,22.35
2018-05-03T02:24:23.368Z,22.45
2018-05-03T02:26:16.778Z,22.45
2018-05-03T02:27:16.220Z,22.83
2018-05-03T02:29:09.382Z,22.54
2018-05-03T02:30:07.478Z,22.26
2018-05-03T02:32:02.741Z,22.45
2018-05-03T02:33:01.592Z,22.35
2018-05-03T02:34:55.864Z,22.35
2018-05-03T02:35:54.870Z,22.54
2018-05-03T02:37:49.109Z,22.35
2018-05-03T02:38:47.754Z,22.26
2018-05-03T02:39:48.734Z,22.26
2018-05-03T02:40:48.861Z,22.45
2018-05-03T02:41:48.644Z,22.74
2018-05-03T02:42:48.554Z,22.45
2018-05-03T02:43:48.726Z,22.92
2018-05-03T02:44:48.548Z,22.45
2018-05-03T02:45:48.531Z,22.54
2018-05-03T02:46:46.490Z,23.40
2018-05-03T02:47:46.145Z,23.59
2018-05-03T02:48:46.194Z,23.49
2018-05-03T02:49:46.160Z,23.78
2018-05-03T02:50:46.071Z,23.58
2018-05-03T02:51:46.019Z,23.48
2018-05-03T02:52:45.946Z,23.67
2018-05-03T02:53:45.913Z,23.39
2018-05-03T02:54:45.874Z,23.29
2018-05-03T02:55:45.841Z,23.39
2018-05-03T02:56:45.829Z,23.29
2018-05-03T02:57:45.801Z,23.77
2018-05-03T02:58:45.741Z,24.23
2018-05-03T02:59:45.717Z,23.96
2018-05-03T03:00:45.670Z,24.33
2018-05-03T03:01:45.738Z,24.61
2018-05-03T03:02:45.568Z,24.52
2018-05-03T03:03:45.598Z,24.61
2018-05-03T03:04:45.522Z,24.52
2018-05-03T03:05:45.502Z,24.90
2018-05-03T03:06:45.426Z,25.27
2018-05-03T03:07:45.428Z,25.18
2018-05-03T03:08:45.333Z,25.75
2018-05-03T03:09:45.379Z,25.75
2018-05-03T03:10:45.246Z,25.75
2018-05-03T03:11:45.243Z,26.51
2018-05-03T03:12:45.246Z,26.89
2018-05-03T03:13:45.173Z,26.98
2018-05-03T03:14:45.097Z,27.37
2018-05-03T03:15:45.057Z,27.65
2018-05-03T03:16:45.024Z,27.46
2018-05-03T03:17:44.996Z,27.27
2018-05-03T03:18:44.951Z,27.36
2018-05-03T03:19:44.956Z,27.55
2018-05-03T03:20:44.864Z,27.16
2018-05-03T03:21:44.816Z,27.26
2018-05-03T03:22:44.791Z,27.64
2018-05-03T03:23:44.809Z,27.83
2018-05-03T03:24:44.712Z,28.21
2018-05-03T03:25:44.677Z,28.11
2018-05-03T03:26:44.631Z,28.68
2018-05-03T03:27:44.603Z,28.78
2018-05-03T03:28:44.565Z,28.68
2018-05-03T03:29:44.530Z,28.49
2018-05-03T03:30:44.467Z,28.40
2018-05-03T03:31:44.442Z,28.97
2018-05-03T03:32:44.439Z,29.16
2018-05-03T03:33:44.353Z,29.25
2018-05-03T03:34:44.306Z,29.63
2018-05-03T03:35:44.260Z,29.82
2018-05-03T03:36:44.240Z,29.73
2018-05-03T03:37:44.193Z,30.01
2018-05-03T03:38:44.208Z,29.82
2018-05-03T03:39:44.149Z,30.30
2018-05-03T03:40:44.100Z,30.58
2018-05-03T03:41:44.019Z,30.68
2018-05-03T03:42:44.016Z,30.87
2018-05-03T03:43:43.964Z,30.87
2018-05-03T03:44:43.947Z,30.77
2018-05-03T03:45:45.472Z,30.87
2018-05-03T03:47:40.981Z,31.72
2018-05-03T03:48:39.280Z,31.53
2018-05-03T03:50:33.627Z,31.80
2018-05-03T03:51:33.538Z,31.71
2018-05-03T03:53:26.540Z,31.90
2018-05-03T03:54:26.601Z,31.99
2018-05-03T03:56:19.407Z,31.80
2018-05-03T03:57:19.419Z,31.90
2018-05-03T03:59:12.567Z,31.99
2018-05-03T04:00:11.170Z,31.92
2018-05-03T04:02:05.355Z,32.65
2018-05-03T04:03:05.331Z,32.09
2018-05-03T04:05:00.210Z,32.84
2018-05-03T04:05:59.810Z,32.37
2018-05-03T04:06:59.812Z,32.56
2018-05-03T04:07:59.729Z,32.29
2018-05-03T04:08:58.190Z,32.65
2018-05-03T04:09:59.751Z,32.65
2018-05-03T04:10:59.753Z,32.75
2018-05-03T04:11:59.636Z,32.56
2018-05-03T04:12:59.638Z,32.18
2018-05-03T04:14:00.621Z,32.57
2018-05-03T04:15:00.802Z,32.57
2018-05-03T04:16:53.899Z,32.57
2018-05-03T04:17:53.901Z,32.57
2018-05-03T04:19:46.882Z,32.10
2018-05-03T04:20:46.947Z,32.01
2018-05-03T04:22:39.916Z,32.39
2018-05-03T04:23:38.051Z,32.01
2018-05-03T04:25:32.787Z,31.63
2018-05-03T04:26:32.156Z,31.82
2018-05-03T04:28:25.904Z,31.64
2018-05-03T04:29:23.976Z,32.03
2018-05-03T04:31:18.747Z,31.55
2018-05-03T04:32:18.765Z,31.64
2018-05-03T04:34:16.592Z,31.26
2018-05-03T04:35:15.874Z,31.07
2018-05-03T04:37:09.709Z,30.60
2018-05-03T04:38:09.367Z,30.51
2018-05-03T04:40:02.758Z,29.84
2018-05-03T04:41:00.561Z,29.74
2018-05-03T04:42:55.261Z,29.27
2018-05-03T04:43:55.200Z,29.84
2018-05-03T04:45:48.806Z,28.98
2018-05-03T04:46:48.761Z,28.52
2018-05-03T04:48:41.752Z,28.23
2018-05-03T04:49:41.595Z,27.95
2018-05-03T04:51:34.625Z,27.48
2018-05-03T04:52:34.620Z,27.28
2018-05-03T04:54:27.670Z,27.09
2018-05-03T04:55:27.639Z,26.72
2018-05-03T04:57:20.968Z,26.34
2018-05-03T04:58:19.292Z,26.14
2018-05-03T05:00:13.196Z,25.57
2018-05-03T05:01:11.786Z,25.48
2018-05-03T05:03:06.512Z,25.29
2018-05-03T05:04:04.751Z,24.91
2018-05-03T05:05:59.463Z,24.43
2018-05-03T05:06:59.437Z,24.44
2018-05-03T05:08:52.370Z,23.78
2018-05-03T05:09:50.911Z,23.68
2018-05-03T05:11:45.390Z,23.21
2018-05-03T05:12:43.377Z,22.91
2018-05-03T05:14:38.372Z,22.54
2018-05-03T05:15:38.218Z,22.74
2018-05-03T05:17:34.178Z,21.78
2018-05-03T05:20:27.795Z,21.59
2018-05-03T05:21:27.619Z,21.02
2018-05-03T05:23:20.252Z,20.73
2018-05-03T05:24:19.445Z,21.50
2018-05-03T05:26:13.705Z,21.88
2018-05-03T05:27:12.297Z,21.51
2018-05-03T05:29:06.560Z,21.98
2018-05-03T05:30:06.542Z,21.89
2018-05-03T05:32:01.164Z,21.98
2018-05-03T05:32:59.078Z,21.79
2018-05-03T05:34:54.119Z,22.85
2018-05-03T05:35:53.947Z,23.90
2018-05-03T05:37:46.878Z,30.85
2018-05-03T05:38:45.026Z,30.76
2018-05-03T05:40:39.507Z,39.44
2018-05-03T05:41:39.779Z,51.16
2018-05-03T05:43:32.886Z,48.11
2018-05-03T05:44:31.201Z,53.54
2018-05-03T05:46:25.838Z,51.95
2018-05-03T05:47:24.120Z,62.34
2018-05-03T05:49:19.866Z,68.24
2018-05-03T05:50:20.293Z,71.30
2018-05-03T05:52:13.821Z,74.38
2018-05-03T05:53:11.858Z,88.31
2018-05-03T05:55:07.358Z,92.55
2018-05-03T05:56:07.071Z,92.03
2018-05-03T05:58:00.297Z,97.51
2018-05-03T05:58:58.357Z,88.68
2018-05-03T06:00:52.570Z,94.46
2018-05-03T06:01:51.297Z,96.89
2018-05-03T06:03:46.090Z,94.41
2018-05-03T06:04:46.048Z,88.50
2018-05-03T06:06:39.146Z,94.74
2018-05-03T06:07:37.238Z,95.61
2018-05-03T06:09:32.129Z,99.99
2018-05-03T06:10:31.937Z,99.42
2018-05-03T06:11:31.780Z,95.79
2018-05-03T06:12:31.988Z,91.78
2018-05-03T06:13:31.895Z,99.99
2018-05-03T06:14:30.177Z,97.89
2018-05-03T06:15:31.906Z,97.61
2018-05-03T06:16:32.108Z,97.80
2018-05-03T06:17:31.985Z,98.56
2018-05-03T06:18:31.902Z,99.99
2018-05-03T06:19:30.163Z,97.03
2018-05-03T06:20:29.799Z,99.80
2018-05-03T06:21:31.046Z,99.99
2018-05-03T06:22:29.868Z,99.99
2018-05-03T06:23:31.701Z,98.08
2018-05-03T06:24:31.522Z,97.71
2018-05-03T06:25:31.566Z,99.52
2018-05-03T06:26:31.554Z,98.08
2018-05-03T06:27:29.487Z,93.12
2018-05-03T06:28:29.339Z,99.99
2018-05-03T06:29:29.299Z,97.80
2018-05-03T06:30:29.216Z,92.55
2018-05-03T06:31:29.156Z,99.99
2018-05-03T06:32:29.135Z,99.99
2018-05-03T06:33:29.088Z,97.66
2018-05-03T06:34:29.160Z,99.08
2018-05-03T06:35:29.016Z,99.99
2018-05-03T06:36:29.021Z,99.99
2018-05-03T06:37:28.962Z,99.99
2018-05-03T06:38:29.778Z,99.99
2018-05-03T06:39:28.888Z,99.99
2018-05-03T06:40:28.857Z,99.99
2018-05-03T06:41:28.901Z,99.99
2018-05-03T06:42:28.793Z,99.99
2018-05-03T06:43:28.856Z,99.99
2018-05-03T06:44:28.739Z,99.99
2018-05-03T06:45:28.710Z,99.99
2018-05-03T06:46:28.640Z,99.99
2018-05-03T06:47:28.648Z,99.99
2018-05-03T06:48:28.575Z,99.99
2018-05-03T06:49:28.631Z,99.99
2018-05-03T06:50:28.513Z,99.99
2018-05-03T06:51:28.531Z,99.99
2018-05-03T06:52:28.473Z,99.99
2018-05-03T06:53:28.411Z,99.99
2018-05-03T06:54:28.391Z,99.99
2018-05-03T06:55:28.499Z,99.99
2018-05-03T06:56:28.340Z,99.99
2018-05-03T06:57:28.366Z,95.26
2018-05-03T06:58:28.309Z,96.70
2018-05-03T06:59:28.257Z,92.82
2018-05-03T07:00:28.238Z,93.01
2018-05-03T07:01:28.194Z,93.82
2018-05-03T07:02:28.145Z,87.29
2018-05-03T07:03:28.147Z,89.07
2018-05-03T07:04:28.179Z,85.32
2018-05-03T07:05:28.062Z,90.52
2018-05-03T07:06:28.038Z,90.37
2018-05-03T07:07:27.988Z,85.71
2018-05-03T07:08:28.005Z,85.67
2018-05-03T07:09:27.950Z,86.40
2018-05-03T07:10:27.906Z,86.44
2018-05-03T07:11:27.945Z,83.75
2018-05-03T07:12:27.879Z,81.07
2018-05-03T07:13:27.834Z,81.64
2018-05-03T07:14:27.798Z,83.23
2018-05-03T07:15:27.888Z,78.23
2018-05-03T07:16:27.727Z,78.55
2018-05-03T07:17:27.736Z,83.56
2018-05-03T07:18:27.701Z,81.22
2018-05-03T07:19:27.678Z,77.78
2018-05-03T07:20:27.618Z,78.42
2018-05-03T07:21:27.672Z,80.66
2018-05-03T07:22:27.610Z,79.75
2018-05-03T07:23:27.548Z,72.86
2018-05-03T07:24:27.535Z,78.59
2018-05-03T07:25:27.633Z,73.94
2018-05-03T07:26:27.492Z,74.98
2018-05-03T07:27:27.444Z,79.65
2018-05-03T07:28:27.441Z,70.37
2018-05-03T07:29:27.468Z,73.69
2018-05-03T07:30:27.408Z,71.87
2018-05-03T07:31:27.394Z,71.42
2018-05-03T07:32:27.319Z,71.91
2018-05-03T07:33:27.346Z,71.25
2018-05-03T07:34:27.278Z,74.04
2018-05-03T07:35:27.243Z,72.32
2018-05-03T07:36:27.250Z,67.00
2018-05-03T07:37:27.206Z,70.01
2018-05-03T07:38:27.166Z,73.02
2018-05-03T07:39:27.169Z,69.82
2018-05-03T07:40:27.195Z,69.34
2018-05-03T07:41:27.131Z,66.71
2018-05-03T07:42:27.103Z,67.80
2018-05-03T07:43:27.088Z,70.33
2018-05-03T07:44:27.030Z,71.03
2018-05-03T07:45:26.998Z,69.66
2018-05-03T07:46:26.975Z,66.04
2018-05-03T07:47:26.966Z,65.94
2018-05-03T07:48:26.948Z,70.51
2018-05-03T07:49:26.943Z,70.90
2018-05-03T07:50:26.900Z,68.06
2018-05-03T07:51:26.887Z,66.97
2018-05-03T07:52:26.843Z,68.73
2018-05-03T07:53:26.826Z,71.59
2018-05-03T07:54:26.807Z,76.46
2018-05-03T07:55:26.777Z,72.55
2018-05-03T07:56:26.744Z,72.39
2018-05-03T07:57:26.773Z,74.54
2018-05-03T07:58:26.716Z,73.86
2018-05-03T07:59:26.699Z,77.63
2018-05-03T08:00:26.667Z,76.35
2018-05-03T08:01:26.631Z,73.61
2018-05-03T08:02:26.607Z,75.08
2018-05-03T08:03:26.560Z,80.70
2018-05-03T08:04:27.289Z,74.91
2018-05-03T08:05:26.526Z,78.36
2018-05-03T08:06:26.498Z,79.99
2018-05-03T08:07:26.481Z,82.00
2018-05-03T08:08:26.440Z,76.96
2018-05-03T08:09:26.422Z,78.20
2018-05-03T08:10:26.379Z,75.43
2018-05-03T08:11:26.386Z,75.48
2018-05-03T08:12:26.383Z,77.53
2018-05-03T08:13:26.337Z,80.51
2018-05-03T08:14:26.282Z,80.70
2018-05-03T08:15:26.282Z,78.74
2018-05-03T08:16:26.280Z,78.55
2018-05-03T08:17:26.208Z,84.25
2018-05-03T08:18:26.255Z,80.18
2018-05-03T08:19:26.152Z,79.80
2018-05-03T08:20:26.106Z,79.80
2018-05-03T08:21:26.133Z,83.58
2018-05-03T08:22:26.118Z,78.36
2018-05-03T08:23:26.029Z,77.73
2018-05-03T08:24:26.036Z,82.04
2018-05-03T08:25:26.022Z,81.41
2018-05-03T08:26:25.960Z,79.03
2018-05-03T08:27:25.943Z,80.79
2018-05-03T08:28:25.961Z,76.14
2018-05-03T08:29:25.867Z,76.52
2018-05-03T08:30:25.853Z,80.64
2018-05-03T08:31:26.303Z,76.48
2018-05-03T08:32:25.777Z,77.67
2018-05-03T08:33:25.746Z,74.66
2018-05-03T08:34:25.754Z,79.93
2018-05-03T08:35:26.296Z,77.29
2018-05-03T08:36:25.705Z,75.23
2018-05-03T08:37:25.648Z,74.57
2018-05-03T08:38:25.607Z,75.62
2018-05-03T08:39:25.550Z,80.35
2018-05-03T08:40:25.581Z,76.62
2018-05-03T08:41:25.540Z,78.63
2018-05-03T08:42:25.482Z,77.29
2018-05-03T08:43:25.476Z,79.05
2018-05-03T08:44:25.422Z,76.62
2018-05-03T08:45:25.390Z,76.04
2018-05-03T08:46:25.380Z,78.63
2018-05-03T08:47:25.354Z,75.50
2018-05-03T08:48:25.336Z,74.64
2018-05-03T08:49:25.338Z,73.52
2018-05-03T08:50:25.264Z,75.82
2018-05-03T08:51:25.241Z,71.40
2018-05-03T08:52:25.204Z,75.37
2018-05-03T08:53:25.166Z,76.14
2018-05-03T08:54:25.125Z,77.38
2018-05-03T08:55:25.099Z,76.32
2018-05-03T08:56:25.069Z,72.74
2018-05-03T08:57:25.054Z,75.14
2018-05-03T08:58:25.009Z,78.30
2018-05-03T08:59:24.991Z,77.63
2018-05-03T09:00:24.974Z,79.11
2018-05-03T09:01:24.923Z,74.31
2018-05-03T09:02:24.909Z,72.59
2018-05-03T09:03:24.877Z,74.31
2018-05-03T09:04:24.827Z,81.89
2018-05-03T09:05:24.815Z,74.12
2018-05-03T09:06:24.754Z,75.56
2018-05-03T09:07:24.738Z,73.03
2018-05-03T09:08:24.718Z,75.48
2018-05-03T09:09:24.689Z,75.54
2018-05-03T09:10:24.660Z,76.29
2018-05-03T09:11:24.644Z,79.01
2018-05-03T09:12:24.598Z,75.23
2018-05-03T09:13:24.554Z,73.65
2018-05-03T09:14:24.560Z,78.34
2018-05-03T09:15:24.523Z,82.89
2018-05-03T09:16:24.477Z,76.10
2018-05-03T09:17:24.453Z,73.30
2018-05-03T09:18:24.410Z,75.02
2018-05-03T09:19:24.412Z,81.01
2018-05-03T09:20:24.373Z,76.48
2018-05-03T09:21:24.336Z,71.39
2018-05-03T09:22:24.347Z,70.52
2018-05-03T09:23:25.942Z,71.14
2018-05-03T09:24:24.262Z,69.79
2018-05-03T09:25:24.250Z,75.79
2018-05-03T09:26:24.232Z,73.77
2018-05-03T09:27:24.142Z,72.38
2018-05-03T09:28:24.119Z,71.55
2018-05-03T09:29:24.118Z,77.75
2018-05-03T09:30:24.104Z,74.33
2018-05-03T09:31:24.059Z,70.43
2018-05-03T09:32:24.045Z,69.81
2018-05-03T09:33:23.981Z,71.87
2018-05-03T09:34:23.958Z,72.31
2018-05-03T09:35:23.945Z,69.79
2018-05-03T09:36:23.893Z,66.33
2018-05-03T09:37:23.869Z,62.99
2018-05-03T09:38:23.819Z,65.37
2018-05-03T09:39:23.801Z,68.26
2018-05-03T09:40:23.880Z,66.33
2018-05-03T09:41:23.743Z,70.30
2018-05-03T09:42:23.716Z,70.43
2018-05-03T09:43:23.674Z,70.17
2018-05-03T09:44:23.693Z,70.64
2018-05-03T09:45:23.665Z,76.50
2018-05-03T09:46:23.630Z,74.73
2018-05-03T09:47:23.571Z,72.41
2018-05-03T09:48:23.541Z,74.08
2018-05-03T09:49:23.503Z,76.09
2018-05-03T09:50:23.476Z,74.81
2018-05-03T09:51:23.493Z,70.07
2018-05-03T09:52:23.448Z,71.19
2018-05-03T09:53:23.456Z,69.97
2018-05-03T09:54:23.414Z,73.18
2018-05-03T09:55:23.330Z,75.10
2018-05-03T09:56:23.396Z,69.95
2018-05-03T09:57:23.279Z,70.04
2018-05-03T09:58:23.297Z,67.48
2018-05-03T09:59:23.316Z,69.40
2018-05-03T10:00:23.202Z,68.06
2018-05-03T10:01:23.169Z,66.33
2018-05-03T10:02:23.172Z,61.25
2018-05-03T10:03:23.131Z,62.26
2018-05-03T10:04:23.109Z,60.69
2018-05-03T10:05:23.075Z,62.93
2018-05-03T10:06:23.064Z,67.83
2018-05-03T10:07:23.010Z,64.31
2018-05-03T10:08:23.026Z,65.46
2018-05-03T10:09:22.983Z,64.15
2018-05-03T10:10:22.960Z,60.91
2018-05-03T10:11:22.910Z,60.94
2018-05-03T10:12:22.893Z,62.66
2018-05-03T10:13:23.012Z,58.14
2018-05-03T10:14:22.854Z,58.07
2018-05-03T10:15:22.806Z,59.78
2018-05-03T10:16:22.771Z,62.06
2018-05-03T10:17:22.796Z,62.54
2018-05-03T10:18:22.723Z,64.31
2018-05-03T10:19:22.690Z,64.15
2018-05-03T10:20:22.706Z,64.69
2018-05-03T10:21:22.782Z,64.82
2018-05-03T10:22:22.643Z,65.37
2018-05-03T10:23:22.671Z,61.25
2018-05-03T10:24:22.581Z,61.55
2018-05-03T10:25:22.565Z,61.97
2018-05-03T10:26:22.561Z,62.77
2018-05-03T10:27:22.492Z,62.57
2018-05-03T10:28:22.541Z,62.80
2018-05-03T10:29:22.450Z,63.02
2018-05-03T10:30:22.400Z,66.00
2018-05-03T10:31:22.381Z,69.49
2018-05-03T10:32:22.392Z,69.68
2018-05-03T10:33:22.395Z,69.62
2018-05-03T10:34:22.322Z,67.90
2018-05-03T10:35:22.281Z,65.46
2018-05-03T10:36:22.400Z,67.93
2018-05-03T10:37:22.260Z,63.57
2018-05-03T10:38:22.848Z,66.61
2018-05-03T10:39:22.225Z,70.29
2018-05-03T10:40:22.159Z,68.44
2018-05-03T10:41:22.128Z,69.65
2018-05-03T10:42:22.115Z,70.55
2018-05-03T10:43:22.072Z,71.22
2018-05-03T10:44:22.071Z,69.74
2018-05-03T10:45:22.066Z,70.97
2018-05-03T10:46:22.007Z,66.94
2018-05-03T10:47:22.021Z,65.94
2018-05-03T10:48:21.977Z,63.51
2018-05-03T10:49:21.970Z,63.38
2018-05-03T10:50:21.920Z,65.56
2018-05-03T10:51:21.912Z,64.25
2018-05-03T10:52:21.892Z,63.57
2018-05-03T10:53:21.815Z,64.37
2018-05-03T10:54:21.891Z,64.05
2018-05-03T10:55:21.775Z,64.73
2018-05-03T10:56:21.741Z,64.31
2018-05-03T10:57:21.762Z,65.63
2018-05-03T10:58:21.791Z,62.61
2018-05-03T10:59:21.644Z,63.85
2018-05-03T11:00:21.633Z,60.77
2018-05-03T11:01:21.628Z,61.38
2018-05-03T11:02:21.760Z,60.61
2018-05-03T11:03:21.558Z,59.00
2018-05-03T11:04:21.547Z,54.91
2018-05-03T11:05:21.542Z,54.21
2018-05-03T11:06:21.573Z,55.45
2018-05-03T11:07:21.487Z,58.08
2018-05-03T11:08:21.436Z,61.74
2018-05-03T11:09:21.472Z,62.96
2018-05-03T11:10:21.389Z,62.29
2018-05-03T11:11:21.354Z,62.68
2018-05-03T11:12:21.487Z,63.19
2018-05-03T11:13:21.328Z,63.32
2018-05-03T11:14:21.277Z,64.18
2018-05-03T11:15:21.260Z,64.02
2018-05-03T11:16:21.258Z,65.20
2018-05-03T11:17:21.208Z,65.37
2018-05-03T11:18:21.165Z,62.61
2018-05-03T11:19:21.171Z,63.70
2018-05-03T11:20:21.183Z,65.94
2018-05-03T11:21:21.142Z,66.17
2018-05-03T11:22:21.098Z,65.27
2018-05-03T11:23:21.109Z,62.26
2018-05-03T11:24:21.081Z,64.31
2018-05-03T11:25:21.004Z,67.86
2018-05-03T11:26:21.129Z,65.33
2018-05-03T11:27:20.950Z,63.28
2018-05-03T11:28:21.871Z,63.70
2018-05-03T11:29:20.977Z,63.64
2018-05-03T11:30:21.020Z,65.75
2018-05-03T11:31:20.910Z,67.76
2018-05-03T11:32:20.822Z,66.26
2018-05-03T11:33:20.833Z,65.11
2018-05-03T11:34:20.769Z,65.40
2018-05-03T11:35:20.770Z,67.25
2018-05-03T11:36:20.711Z,62.48
2018-05-03T11:37:20.741Z,62.38
2018-05-03T11:38:20.818Z,62.45
2018-05-03T11:39:20.728Z,63.16
2018-05-03T11:40:20.707Z,64.40
2018-05-03T11:41:20.611Z,64.50
2018-05-03T11:42:20.690Z,62.07
2018-05-03T11:43:20.829Z,62.00
2018-05-03T11:44:20.840Z,60.08
2018-05-03T11:45:20.585Z,61.26
2018-05-03T11:46:20.519Z,62.00
2018-05-03T11:47:20.536Z,60.27
2018-05-03T11:48:20.417Z,64.43
2018-05-03T11:49:20.501Z,62.90
2018-05-03T11:50:20.359Z,61.80
2018-05-03T11:51:20.379Z,61.97
2018-05-03T11:52:20.302Z,61.61
2018-05-03T11:53:20.302Z,58.24
2018-05-03T11:54:20.300Z,61.14
2018-05-03T11:55:20.242Z,63.18
2018-05-03T11:56:20.347Z,61.07
2018-05-03T11:57:20.203Z,59.47
2018-05-03T11:58:20.155Z,59.89
2018-05-03T12:00:16.365Z,62.77
2018-05-03T12:01:15.665Z,62.13
2018-05-03T12:03:10.722Z,62.80
2018-05-03T12:04:10.377Z,62.13
2018-05-03T12:06:05.138Z,64.28
2018-05-03T12:07:03.018Z,62.26
2018-05-03T12:08:59.055Z,62.64
2018-05-03T12:09:58.923Z,62.83
2018-05-03T12:11:56.447Z,63.92
2018-05-03T12:12:57.634Z,66.49
2018-05-03T12:13:56.171Z,64.18
2018-05-03T12:14:56.299Z,64.34
2018-05-03T12:15:54.378Z,63.15
2018-05-03T12:16:56.303Z,62.64
2018-05-03T12:17:56.292Z,64.56
2018-05-03T12:18:54.155Z,63.51
2018-05-03T12:19:56.171Z,62.10
2018-05-03T12:20:56.188Z,61.52
2018-05-03T12:21:55.828Z,61.58
2018-05-03T12:22:56.159Z,59.08
2018-05-03T12:23:56.093Z,59.82
2018-05-03T12:24:56.251Z,59.47
2018-05-03T12:25:55.343Z,61.22
2018-05-03T12:26:54.068Z,60.75
2018-05-03T12:27:54.809Z,59.20
2018-05-03T12:28:56.107Z,62.38
2018-05-03T12:29:54.147Z,63.86
2018-05-03T12:30:53.693Z,63.41
2018-05-03T12:31:53.858Z,66.20
2018-05-03T12:32:53.655Z,65.59
2018-05-03T12:33:53.694Z,66.42
2018-05-03T12:34:53.665Z,69.34
2018-05-03T12:35:53.660Z,67.99
2018-05-03T12:36:53.568Z,68.34
2018-05-03T12:37:53.507Z,68.82
2018-05-03T12:38:53.507Z,67.07
2018-05-03T12:39:53.475Z,66.55
2018-05-03T12:40:53.479Z,64.31
2018-05-03T12:41:53.471Z,62.26
2018-05-03T12:42:53.385Z,63.70
2018-05-03T12:43:53.457Z,62.41
2018-05-03T12:44:53.689Z,62.07
2018-05-03T12:45:53.322Z,65.05
2018-05-03T12:46:53.397Z,64.18
2018-05-03T12:47:53.738Z,64.40
2018-05-03T12:48:53.226Z,66.20
2018-05-03T12:49:53.313Z,62.58
2018-05-03T12:50:54.175Z,61.91
2018-05-03T12:51:54.667Z,62.29
2018-05-03T12:52:53.208Z,62.71
2018-05-03T12:53:53.094Z,65.30
2018-05-03T12:54:53.065Z,64.85
2018-05-03T12:55:53.122Z,67.38
2018-05-03T12:56:53.101Z,66.07
2018-05-03T12:57:52.998Z,64.02
2018-05-03T12:58:52.968Z,64.34
2018-05-03T12:59:52.936Z,64.43
2018-05-03T13:00:53.014Z,60.52
2018-05-03T13:01:52.983Z,62.09
2018-05-03T13:02:52.880Z,64.43
2018-05-03T13:03:52.864Z,63.95
2018-05-03T13:04:52.876Z,61.32
2018-05-03T13:05:52.825Z,57.67
2018-05-03T13:06:52.767Z,59.24
2018-05-03T13:07:52.737Z,62.03
2018-05-03T13:08:52.721Z,61.74
2018-05-03T13:09:52.829Z,60.49
2018-05-03T13:10:52.681Z,60.39
2018-05-03T13:11:52.635Z,60.65
2018-05-03T13:12:52.642Z,61.19
2018-05-03T13:13:52.585Z,59.20
2018-05-03T13:14:52.587Z,61.07
2018-05-03T13:15:52.554Z,61.91
2018-05-03T13:16:52.692Z,63.83
2018-05-03T13:17:52.894Z,66.33
2018-05-03T13:18:52.534Z,68.63
2018-05-03T13:19:52.546Z,66.58
2018-05-03T13:20:52.459Z,69.30
2018-05-03T13:21:52.404Z,69.68
2018-05-03T13:22:52.377Z,66.16
2018-05-03T13:23:52.555Z,64.66
2018-05-03T13:24:52.454Z,65.17
2018-05-03T13:25:52.295Z,62.41
2018-05-03T13:26:52.294Z,67.65
2018-05-03T13:27:52.299Z,65.37
2018-05-03T13:28:52.216Z,66.58
2018-05-03T13:29:52.222Z,66.00
2018-05-03T13:30:52.163Z,65.59
2018-05-03T13:31:52.142Z,63.95
2018-05-03T13:32:52.183Z,62.03
2018-05-03T13:33:52.102Z,62.74
2018-05-03T13:34:52.062Z,61.49
2018-05-03T13:35:52.083Z,63.22
2018-05-03T13:36:52.103Z,62.54
2018-05-03T13:37:51.989Z,59.56
2018-05-03T13:38:51.980Z,58.98
2018-05-03T13:39:51.931Z,60.65
2018-05-03T13:40:51.931Z,62.45
2018-05-03T13:41:51.919Z,61.04
2018-05-03T13:42:51.889Z,61.19
2018-05-03T13:43:51.859Z,64.98
2018-05-03T13:44:51.813Z,64.18
2018-05-03T13:45:51.792Z,64.34
2018-05-03T13:46:51.932Z,66.93
2018-05-03T13:47:51.740Z,65.33
2018-05-03T13:48:51.703Z,65.46
2018-05-03T13:49:51.660Z,63.73
2018-05-03T13:50:51.639Z,62.38
2018-05-03T13:51:51.624Z,62.29
2018-05-03T13:52:51.587Z,61.81
2018-05-03T13:53:51.567Z,62.90
2018-05-03T13:54:51.582Z,61.61
2018-05-03T13:55:51.516Z,62.84
2018-05-03T13:56:51.566Z,62.64
2018-05-03T13:57:51.496Z,63.92
2018-05-03T13:58:51.487Z,64.53
2018-05-03T13:59:51.411Z,61.42
2018-05-03T14:00:51.512Z,58.82
2018-05-03T14:01:51.408Z,61.74
2018-05-03T14:02:51.345Z,63.64
2018-05-03T14:03:51.371Z,61.16
2018-05-03T14:04:51.322Z,62.77
2018-05-03T14:05:51.305Z,63.73
2018-05-03T14:06:51.315Z,63.83
2018-05-03T14:07:51.297Z,64.43
2018-05-03T14:08:51.167Z,65.30
2018-05-03T14:09:51.163Z,64.15
2018-05-03T14:10:51.171Z,63.48